Watertown, WI (53094)

5:45 PM CDT on September 26, 2016 (GMT -0500)
Hunter Oaks Subdivision | | Change Station

Elev 840 ft 43.18 °N, 88.76 °W | Updated 7 seconds ago

Overcast
Overcast
65.8 °F
Feels Like 65.8 °F
N
6.9
Wind Variable Wind from NE
Gusts 12.1 mph

Today
High -- | Low -- °F
--% Chance of Precip.
Yesterday
High -- | Low -- °F
Precip. -- in
Pressure 29.86 in
Visibility 10.0 miles
Clouds Overcast 9000 ft
Dew Point 37 °F
Humidity 35%
Rainfall 0.01 in
Snow Depth Not available.
6:47 AM 6:44 PM
Waning Crescent, 16% visible
METAR KRYV 262235Z AUTO 27013G16KT 10SM OVC090 18/02 A2986 RMK AO2 T01760022
Pressure 29.86 in
Visibility 10.0 miles
Clouds Overcast 9000 ft
Dew Point 37 °F
Humidity 35%
Rainfall 0.01 in
Snow Depth Not available.
6:47 AM 6:44 PM
Waning Crescent, 16% visible
METAR KRYV 262235Z AUTO 27013G16KT 10SM OVC090 18/02 A2986 RMK AO2 T01760022

10-Day Weather Forecast

Almanac

Astronomy

Sep. 26, 2016 Rise Set
Actual Time
Civil Twilight
Nautical Twilight
Astronomical Twilight
Moon
Length of Visible Light
Length of Day
Tomorrow will be .
, % of the Moon is Illuminated

Today's Extremes

State Highs State Lows

Community

WunderPhotos

Upload Photos

1,941,981 photos uploaded!

WunderBlog® & News

Nearby

Air Quality

  Air Quality AQ Index Pollutant
Not available.

Snow Depth

Station Depth Elevation

Earthquake Activity

City Distance Mag. Time & Date
Minimum magnitude displayed is 2.5.

Coastal Water Temperatures

Place Temperature

Stations

Nearby Weather Stations

Station Location Temp. Windchill Dew Point Humidity Wind Precip. Elev Updated Type
                   

Watches & Warnings

There are currently no watches in effect.